Powers, Michigan
Current Conditions -  °F | °C
As of 2:55 PM on Tuesday 27 Jan 2015 (Local Time) from KESC Reporting Station
Overcast Overcast  
Wind Chill: 25°   Ceiling: 2200
Heat Index: 25°   Visibility: 10mi
Dew Point: 16°   Wind: 3mph
Humidity: 69%   Direction: 110°ESE
Pressure: 30.23"   Gusts: NA
Location:  45.69°N, 87.53°W
Report Text: KESC 272055Z AUTO 11003KT 10SM OVC022 M04/M09 A3023 RMK AO1 57003
Loading
Personal Weather Stations






























Interactive Weather Map New forecast layout! Learn more

10-Day Weather Forecast

Advertisements
Track Severe Weather on mobile